Time;durP1;ratioP1;P1;durP2;ratioP2;P2;SDS_P1;SDS_P2;PMS_P1;PMS_P2;Temp;Humidity;BMP_temperature;BMP_pressure;BME280_temperature;BME280_humidity;BME280_pressure;Samples;Min_cycle;Max_cycle;Signal;HPM_P1;HPM_P2
2023/06/15 00:04:44;;;;;;;0.43;0.00;;;;;;;18.96;100.00;101890.03;10444074;28;20045;-81
2023/06/15 00:09:46;;;;;;;0.00;0.00;;;;;;;18.74;100.00;101890.69;10465846;28;20440;-81
2023/06/15 00:14:47;;;;;;;0.10;0.10;;;;;;;18.55;100.00;101893.19;10463229;28;20104;-81
2023/06/15 00:19:49;;;;;;;0.25;0.25;;;;;;;18.35;100.00;101896.50;10468686;28;20052;-81
2023/06/15 00:24:51;;;;;;;0.28;0.15;;;;;;;18.41;100.00;101900.00;10449628;28;20057;-81
2023/06/15 00:29:53;;;;;;;0.00;0.00;;;;;;;18.96;100.00;101899.63;10450519;28;20061;-81
2023/06/15 00:34:54;;;;;;;0.52;0.20;;;;;;;18.51;100.00;101896.59;10457698;28;20064;-81
2023/06/15 00:39:56;;;;;;;0.20;0.20;;;;;;;18.45;100.00;101899.16;10454072;28;20393;-81
2023/06/15 00:44:58;;;;;;;0.57;0.20;;;;;;;18.65;100.00;101902.81;10436946;28;20516;-82
2023/06/15 00:50:00;;;;;;;0.10;0.05;;;;;;;18.55;100.00;101895.78;10455528;28;20057;-81
2023/06/15 00:55:03;;;;;;;0.43;0.30;;;;;;;18.65;100.00;101889.75;10458865;28;20666;-81
2023/06/15 01:00:10;;;;;;;0.08;0.05;;;;;;;18.52;100.00;101887.91;10458398;28;20535;-81
2023/06/15 01:05:16;;;;;;;0.17;0.00;;;;;;;18.68;100.00;101894.16;10450645;28;20049;-81
2023/06/15 01:10:21;;;;;;;0.40;0.20;;;;;;;18.69;100.00;101896.78;10442472;28;20066;-81
2023/06/15 01:15:24;;;;;;;0.43;0.28;;;;;;;18.36;100.00;101893.00;10462078;28;20076;-81
2023/06/15 01:20:38;;;;;;;0.32;0.22;;;;;;;18.62;100.00;101899.31;10441378;28;20419;-81
2023/06/15 01:25:53;;;;;;;0.20;0.20;;;;;;;18.86;100.00;101891.66;10452857;28;20037;-81
2023/06/15 01:30:56;;;;;;;0.00;0.00;;;;;;;18.55;100.00;101898.41;10453837;28;20053;-81
2023/06/15 01:35:58;;;;;;;0.10;0.10;;;;;;;18.14;100.00;101896.25;10447916;28;20049;-81
2023/06/15 01:41:00;;;;;;;0.68;0.35;;;;;;;18.48;100.00;101896.59;10467059;28;20053;-81
2023/06/15 01:46:04;;;;;;;0.00;0.00;;;;;;;18.92;100.00;101903.94;10460870;28;20135;-81
2023/06/15 01:51:06;;;;;;;0.85;0.50;;;;;;;18.62;100.00;101899.31;10445778;28;20049;-81
2023/06/15 01:56:08;;;;;;;0.17;0.13;;;;;;;18.69;100.00;101894.16;10460566;28;20065;-81
2023/06/15 02:01:12;;;;;;;0.47;0.30;;;;;;;18.31;100.00;101902.53;10433893;28;20404;-81
2023/06/15 02:06:15;;;;;;;0.10;0.10;;;;;;;17.88;100.00;101899.44;10473837;28;20072;-81
2023/06/15 02:11:18;;;;;;;0.10;0.10;;;;;;;17.34;100.00;101902.22;10449556;28;20055;-81
2023/06/15 02:16:22;;;;;;;0.00;0.00;;;;;;;17.60;100.00;101901.72;10441739;28;20454;-81
2023/06/15 02:21:23;;;;;;;0.65;0.40;;;;;;;17.18;100.00;101900.25;10442243;28;20053;-81
2023/06/15 02:26:25;;;;;;;0.10;0.10;;;;;;;17.05;100.00;101899.22;10452585;28;20107;-81
2023/06/15 02:31:27;;;;;;;0.10;0.10;;;;;;;17.57;100.00;101904.28;10459198;28;20140;-81
2023/06/15 02:36:30;;;;;;;0.45;0.45;;;;;;;16.80;100.00;101907.47;10460059;28;20036;-81
2023/06/15 02:41:32;;;;;;;0.60;0.35;;;;;;;17.18;100.00;101905.47;10436985;28;20049;-81
2023/06/15 02:46:34;;;;;;;0.75;0.17;;;;;;;17.35;100.00;101903.97;10456809;28;20408;-81
2023/06/15 02:51:37;;;;;;;0.15;0.15;;;;;;;17.36;100.00;101899.63;10462654;28;20110;-81
2023/06/15 02:56:41;;;;;;;0.45;0.32;;;;;;;17.06;100.00;101903.56;10448602;28;20057;-81
2023/06/15 03:01:44;;;;;;;0.10;0.10;;;;;;;17.02;100.00;101904.38;10459090;28;20045;-81
2023/06/15 03:06:51;;;;;;;0.10;0.10;;;;;;;17.42;100.00;101904.97;10444211;28;20524;-81
2023/06/15 03:12:01;;;;;;;0.63;0.32;;;;;;;17.06;100.00;101895.75;10435367;28;20095;-81
2023/06/15 03:17:13;;;;;;;1.05;0.32;;;;;;;16.89;100.00;101900.66;10451725;28;20140;-81
2023/06/15 03:22:19;;;;;;;0.00;0.00;;;;;;;16.87;100.00;101910.16;10433906;28;20041;-81
2023/06/15 03:27:20;;;;;;;1.00;0.32;;;;;;;16.92;100.00;101908.53;10468484;28;20064;-81
2023/06/15 03:32:24;;;;;;;0.75;0.35;;;;;;;16.78;100.00;101905.69;10453741;28;20052;-81
2023/06/15 03:37:26;;;;;;;0.10;0.10;;;;;;;17.04;100.00;101911.34;10462150;28;20045;-81
2023/06/15 03:42:28;;;;;;;0.10;0.10;;;;;;;16.96;100.00;101910.34;10429881;28;20138;-81
2023/06/15 03:47:31;;;;;;;0.00;0.00;;;;;;;17.24;100.00;101908.16;10454086;28;20055;-81
2023/06/15 03:52:33;;;;;;;0.10;0.10;;;;;;;16.89;100.00;101911.06;10444452;28;20041;-81
2023/06/15 03:57:35;;;;;;;0.50;0.15;;;;;;;17.42;100.00;101915.38;10448237;28;20159;-81
2023/06/15 04:02:37;;;;;;;0.10;0.10;;;;;;;17.53;100.00;101910.31;10450099;28;20048;-81
2023/06/15 04:07:40;;;;;;;0.10;0.10;;;;;;;17.51;100.00;101917.22;10453701;28;20103;-81
2023/06/15 04:12:43;;;;;;;0.20;0.00;;;;;;;17.48;100.00;101914.56;10434929;28;20107;-81
2023/06/15 04:17:48;;;;;;;0.10;0.10;;;;;;;17.09;100.00;101917.50;10427029;28;20058;-81
2023/06/15 04:22:50;;;;;;;0.10;0.10;;;;;;;18.11;100.00;101917.09;10446078;28;20107;-81
2023/06/15 04:27:52;;;;;;;0.22;0.17;;;;;;;17.95;100.00;101922.13;10445210;28;20049;-81
2023/06/15 04:32:59;;;;;;;0.20;0.20;;;;;;;17.95;100.00;101922.13;10436367;28;20049;-81
2023/06/15 04:38:05;;;;;;;0.10;0.10;;;;;;;18.10;100.00;101925.78;10446557;28;20040;-81
2023/06/15 04:43:08;;;;;;;0.10;0.10;;;;;;;18.60;100.00;101929.75;10447628;28;20045;-81
2023/06/15 04:48:11;;;;;;;1.38;0.32;;;;;;;18.74;100.00;101930.75;10450233;28;20095;-81
2023/06/15 04:53:13;;;;;;;0.00;0.00;;;;;;;18.86;100.00;101933.44;10441642;28;20496;-81
2023/06/15 04:58:14;;;;;;;0.35;0.35;;;;;;;18.80;100.00;101940.38;10458545;28;20079;-81
2023/06/15 05:03:17;;;;;;;0.10;0.10;;;;;;;18.82;100.00;101954.28;10439125;28;20045;-81
2023/06/15 05:08:19;;;;;;;0.00;0.00;;;;;;;19.19;100.00;101954.59;10452071;28;20044;-82
2023/06/15 05:13:21;;;;;;;0.98;0.55;;;;;;;19.10;100.00;101949.34;10444465;28;20094;-81
2023/06/15 05:18:23;;;;;;;0.10;0.10;;;;;;;19.65;100.00;101949.66;10449233;28;20088;-81
2023/06/15 05:23:26;;;;;;;0.30;0.28;;;;;;;19.62;100.00;101960.09;10460230;28;20048;-81
2023/06/15 05:28:28;;;;;;;0.22;0.20;;;;;;;19.69;100.00;101954.91;10451439;28;20053;-81
2023/06/15 05:33:30;;;;;;;0.20;0.20;;;;;;;19.87;100.00;101960.22;10454917;28;20139;-82
2023/06/15 05:38:32;;;;;;;0.13;0.13;;;;;;;19.87;100.00;101949.78;10437173;28;20052;-81
2023/06/15 05:43:34;;;;;;;0.17;0.17;;;;;;;20.41;100.00;101949.06;10436077;28;20041;-81
2023/06/15 05:48:36;;;;;;;0.15;0.15;;;;;;;20.61;100.00;101960.41;10465976;28;20500;-81
2023/06/15 05:53:39;;;;;;;0.22;0.22;;;;;;;20.57;100.00;101953.44;10438667;28;20470;-81
2023/06/15 05:58:41;;;;;;;0.70;0.30;;;;;;;20.64;100.00;101949.06;10448147;28;20080;-82
2023/06/15 06:03:43;;;;;;;0.35;0.10;;;;;;;20.99;100.00;101956.09;10454770;28;20048;-81
2023/06/15 06:08:46;;;;;;;0.25;0.25;;;;;;;21.27;100.00;101960.41;10452931;28;20049;-81
2023/06/15 06:13:48;;;;;;;1.05;0.38;;;;;;;21.54;100.00;101960.38;10443953;28;20159;-81
2023/06/15 06:18:50;;;;;;;1.77;0.40;;;;;;;21.64;100.00;101960.34;10444346;28;20471;-81
2023/06/15 06:23:52;;;;;;;0.28;0.22;;;;;;;21.64;100.00;101965.59;10428415;28;20041;-81
2023/06/15 06:28:55;;;;;;;0.20;0.20;;;;;;;21.40;100.00;101963.00;10451968;28;20049;-82
2023/06/15 06:33:57;;;;;;;0.10;0.10;;;;;;;21.65;100.00;101965.59;10437928;28;20043;-82
2023/06/15 06:38:59;;;;;;;0.10;0.10;;;;;;;21.82;100.00;101965.53;10441762;28;20139;-82
2023/06/15 06:44:03;;;;;;;0.28;0.20;;;;;;;21.94;100.00;101963.72;10450302;28;20078;-82
2023/06/15 06:49:05;;;;;;;0.17;0.17;;;;;;;22.31;100.00;101968.75;10444774;28;20492;-81
2023/06/15 06:54:07;;;;;;;0.10;0.10;;;;;;;22.59;100.00;101969.50;10466361;28;20093;-81
2023/06/15 06:59:09;;;;;;;0.20;0.20;;;;;;;23.06;100.00;101962.09;10449432;28;20044;-82
2023/06/15 07:04:11;;;;;;;0.98;0.52;;;;;;;23.95;100.00;101966.44;10456867;28;20451;-81
2023/06/15 07:09:12;;;;;;;0.32;0.20;;;;;;;24.69;100.00;101955.69;10467377;28;20479;-81
2023/06/15 07:14:14;;;;;;;0.43;0.40;;;;;;;24.59;100.00;101959.34;10463301;28;20045;-82
2023/06/15 07:19:16;;;;;;;0.75;0.40;;;;;;;25.75;98.52;101969.59;10434743;28;20053;-81
2023/06/15 07:24:17;;;;;;;0.20;0.10;;;;;;;25.82;97.79;101971.19;10445065;28;20131;-81
2023/06/15 07:29:19;;;;;;;0.28;0.28;;;;;;;26.45;90.84;101963.66;10468752;28;20051;-82
2023/06/15 07:34:21;;;;;;;0.00;0.00;;;;;;;25.94;95.09;101970.94;10461267;28;20048;-82
2023/06/15 07:39:22;;;;;;;0.15;0.13;;;;;;;25.95;91.41;101963.88;10452021;28;20049;-81
2023/06/15 07:44:25;;;;;;;0.20;0.10;;;;;;;27.30;92.46;101963.25;10451180;28;20046;-82
2023/06/15 07:49:27;;;;;;;0.13;0.13;;;;;;;26.44;85.92;101969.84;10438279;28;20094;-82
2023/06/15 07:54:46;;;;;;;0.10;0.10;;;;;;;27.10;86.39;101963.84;10448844;28;20037;-82
2023/06/15 07:59:48;;;;;;;1.75;0.20;;;;;;;28.73;83.41;101957.25;10468790;28;20055;-82
2023/06/15 08:04:50;;;;;;;0.28;0.28;;;;;;;28.84;74.76;101954.22;10457687;28;20086;-81
2023/06/15 08:09:52;;;;;;;0.17;0.10;;;;;;;29.89;73.71;101955.72;10439902;28;20047;-81
2023/06/15 08:14:54;;;;;;;0.65;0.20;;;;;;;29.02;80.67;101942.94;10453871;28;20503;-81
2023/06/15 08:19:56;;;;;;;0.15;0.15;;;;;;;27.89;77.11;101954.53;10454532;28;20045;-82
2023/06/15 08:24:58;;;;;;;0.10;0.08;;;;;;;27.67;79.36;101962.25;10453291;28;20047;-83
2023/06/15 08:29:59;;;;;;;0.65;0.40;;;;;;;27.69;78.08;101960.44;10462820;28;20057;-83
2023/06/15 08:35:01;;;;;;;0.15;0.13;;;;;;;29.22;75.94;101954.66;10431598;28;20056;-83
2023/06/15 08:40:07;;;;;;;0.30;0.30;;;;;;;30.10;73.35;101958.47;10423955;28;20148;-81
2023/06/15 08:45:09;;;;;;;0.30;0.03;;;;;;;30.99;75.83;101944.13;10447388;28;20506;-81
2023/06/15 08:50:11;;;;;;;0.17;0.15;;;;;;;29.58;74.55;101957.75;10449600;28;20364;-82
2023/06/15 08:55:15;;;;;;;0.10;0.10;;;;;;;29.04;73.11;101951.72;10445432;28;20037;-83
2023/06/15 09:00:19;;;;;;;0.20;0.10;;;;;;;29.60;71.80;101957.69;10434449;28;20144;-82
2023/06/15 09:05:22;;;;;;;0.28;0.28;;;;;;;29.99;68.18;101953.59;10445617;28;20045;-82
2023/06/15 09:10:23;;;;;;;1.35;0.20;;;;;;;29.20;69.02;101957.34;10433218;28;20398;-82
2023/06/15 09:15:30;;;;;;;0.47;0.22;;;;;;;29.67;69.83;101945.94;10461246;28;20073;-82
2023/06/15 09:20:38;;;;;;;0.10;0.10;;;;;;;28.94;66.56;101942.34;10442170;28;20135;-83
2023/06/15 09:25:51;;;;;;;0.10;0.10;;;;;;;29.95;65.01;101942.22;10432053;28;20633;-83
2023/06/15 09:30:59;;;;;;;0.32;0.20;;;;;;;30.01;59.79;101934.00;10445261;28;20142;-83
2023/06/15 09:36:06;;;;;;;0.35;0.22;;;;;;;31.76;56.83;101929.16;10449890;28;20369;-82
2023/06/15 09:41:08;;;;;;;0.82;0.30;;;;;;;31.01;57.17;101920.09;10455078;28;20118;-82
2023/06/15 09:46:12;;;;;;;0.15;0.00;;;;;;;30.24;57.92;101924.25;10434712;28;20077;-82
2023/06/15 09:51:15;;;;;;;0.32;0.20;;;;;;;32.30;55.32;101920.38;10430740;28;20044;-82
2023/06/15 09:56:18;;;;;;;0.35;0.32;;;;;;;31.64;59.83;101922.56;10439932;28;20048;-83
2023/06/15 10:01:35;;;;;;;0.00;0.00;;;;;;;31.08;49.23;101920.72;10445376;28;20450;-83
2023/06/15 10:06:40;;;;;;;0.10;0.10;;;;;;;31.53;57.58;101922.22;10456241;28;20480;-82
2023/06/15 10:11:45;;;;;;;0.10;0.10;;;;;;;30.33;51.82;101926.53;10434374;28;20053;-82
2023/06/15 10:16:53;;;;;;;0.70;0.40;;;;;;;30.47;53.63;101927.72;10450124;28;20492;-83
2023/06/15 10:21:56;;;;;;;0.32;0.20;;;;;;;31.23;50.19;101922.72;10465233;28;20041;-82
2023/06/15 10:26:58;;;;;;;0.80;0.20;;;;;;;32.73;46.86;101914.63;10451810;28;20044;-83
2023/06/15 10:32:13;;;;;;;0.00;0.00;;;;;;;30.96;44.45;101917.66;10454936;28;20578;-82
2023/06/15 10:37:35;;;;;;;0.10;0.10;;;;;;;31.94;49.28;101916.75;10449759;28;20488;-82
2023/06/15 10:42:46;;;;;;;0.20;0.20;;;;;;;31.51;50.21;101918.78;10446208;28;20123;-82
2023/06/15 10:47:49;;;;;;;0.00;0.00;;;;;;;30.74;49.56;101911.53;10450636;28;20545;-84
2023/06/15 10:52:51;;;;;;;0.30;0.30;;;;;;;30.31;44.27;101922.16;10435937;28;20057;-84
2023/06/15 10:58:15;;;;;;;0.35;0.20;;;;;;;31.80;47.25;101908.56;10450469;28;20571;-83
2023/06/15 11:03:26;;;;;;;0.20;0.15;;;;;;;32.12;49.86;101908.78;10432362;28;20044;-83
2023/06/15 11:08:40;;;;;;;0.20;0.13;;;;;;;32.67;47.48;101898.94;10449604;28;20057;-81
2023/06/15 11:14:00;;;;;;;0.10;0.10;;;;;;;33.45;40.24;101909.94;10441505;28;20510;-81
2023/06/15 11:19:14;;;;;;;0.00;0.00;;;;;;;32.97;45.20;101908.97;10465114;28;20043;-82
2023/06/15 11:24:16;;;;;;;0.55;0.28;;;;;;;31.82;41.88;101901.38;10436996;28;20037;-82
2023/06/15 11:29:26;;;;;;;3.08;0.30;;;;;;;31.91;43.12;101895.56;10446568;28;20069;-84
2023/06/15 11:34:29;;;;;;;0.00;0.00;;;;;;;30.86;44.92;101900.38;10448081;28;20044;-84
2023/06/15 11:39:31;;;;;;;0.30;0.30;;;;;;;28.93;46.28;101900.88;10442387;28;20067;-83
2023/06/15 11:44:32;;;;;;;0.43;0.35;;;;;;;29.74;46.51;101896.97;10447360;28;20542;-84
2023/06/15 11:49:37;;;;;;;0.25;0.25;;;;;;;31.77;43.72;101887.38;10419441;28;20041;-84
2023/06/15 11:54:39;;;;;;;0.10;0.10;;;;;;;31.66;41.74;101889.72;10448312;28;20136;-83
2023/06/15 11:59:54;;;;;;;1.13;0.20;;;;;;;31.15;45.96;101879.63;10445955;28;20160;-83
2023/06/15 12:04:57;;;;;;;0.05;0.05;;;;;;;31.31;44.76;101880.59;10431232;28;20500;-84
2023/06/15 12:10:00;;;;;;;0.45;0.28;;;;;;;32.04;43.37;101866.50;10432032;28;20041;-82
2023/06/15 12:15:04;;;;;;;0.15;0.15;;;;;;;30.74;40.08;101874.31;10425602;28;20555;-83
2023/06/15 12:20:11;;;;;;;0.10;0.10;;;;;;;30.78;47.43;101866.13;10435254;28;20602;-83
2023/06/15 12:25:14;;;;;;;1.17;0.35;;;;;;;29.33;42.89;101872.88;10442106;28;20507;-84
2023/06/15 12:30:18;;;;;;;0.30;0.20;;;;;;;30.46;48.21;101870.16;10438176;28;20048;-82
2023/06/15 12:35:36;;;;;;;3.85;1.55;;;;;;;29.71;44.14;101873.19;10447219;28;20549;-83
2023/06/15 12:40:39;;;;;;;0.17;0.17;;;;;;;30.48;45.74;101863.00;10444326;28;20065;-82
2023/06/15 12:45:41;;;;;;;0.13;0.10;;;;;;;31.32;43.17;101849.53;10453303;28;20044;-82
2023/06/15 12:50:43;;;;;;;0.22;0.10;;;;;;;30.07;43.40;101856.69;10434461;28;20054;-84
2023/06/15 12:55:46;;;;;;;0.10;0.10;;;;;;;30.31;44.27;101845.09;10437855;28;20045;-84
2023/06/15 13:00:47;;;;;;;0.00;0.00;;;;;;;29.59;42.21;101857.75;10444751;28;20049;-84
2023/06/15 13:05:49;;;;;;;0.25;0.17;;;;;;;30.57;39.84;101838.69;10446374;28;20037;-84
2023/06/15 13:10:50;;;;;;;0.08;0.00;;;;;;;29.19;43.20;101840.66;10431371;28;20036;-83
2023/06/15 13:15:52;;;;;;;0.10;0.10;;;;;;;29.97;44.76;101834.13;10427279;28;20051;-84
2023/06/15 13:20:55;;;;;;;0.00;0.00;;;;;;;29.85;40.47;101831.91;10437972;28;20566;-84
2023/06/15 13:25:57;;;;;;;0.00;0.00;;;;;;;30.12;43.01;101829.09;10434551;28;20492;-83
2023/06/15 13:30:59;;;;;;;0.00;0.00;;;;;;;30.38;40.37;101823.50;10436672;28;20060;-84
2023/06/15 13:36:00;;;;;;;0.00;0.00;;;;;;;30.91;42.22;101826.53;10442843;28;20514;-84
2023/06/15 13:41:02;;;;;;;0.05;0.05;;;;;;;29.90;35.08;101809.56;10451065;28;20489;-83
2023/06/15 13:46:04;;;;;;;0.22;0.10;;;;;;;30.30;37.02;101820.31;10454554;28;20055;-83
2023/06/15 13:51:06;;;;;;;0.00;0.00;;;;;;;30.35;37.52;101815.66;10447870;28;20041;-83
2023/06/15 13:56:07;;;;;;;0.10;0.10;;;;;;;30.33;36.94;101806.91;10452172;28;20503;-83
2023/06/15 14:01:09;;;;;;;0.00;0.00;;;;;;;29.46;36.03;101808.69;10468644;28;20057;-83
2023/06/15 14:06:11;;;;;;;0.45;0.30;;;;;;;29.46;35.05;101811.34;10454406;28;20128;-83
2023/06/15 14:11:14;;;;;;;2.65;0.10;;;;;;;29.63;33.59;101802.72;10451107;28;20063;-83
2023/06/15 14:16:20;;;;;;;0.20;0.20;;;;;;;29.99;35.15;101786.22;10461663;28;20060;-84
2023/06/15 14:21:24;;;;;;;0.45;0.22;;;;;;;29.72;33.82;101795.25;10467117;28;20048;-83
2023/06/15 14:26:26;;;;;;;0.28;0.10;;;;;;;29.64;33.62;101794.69;10454799;28;20461;-84
2023/06/15 14:31:27;;;;;;;0.35;0.20;;;;;;;30.10;33.59;101783.97;10452154;28;20033;-84
2023/06/15 14:36:29;;;;;;;0.10;0.10;;;;;;;29.71;32.96;101784.69;10447238;28;20045;-84
2023/06/15 14:41:31;;;;;;;0.20;0.10;;;;;;;30.14;33.92;101784.69;10446939;28;20056;-83
2023/06/15 14:46:33;;;;;;;0.47;0.25;;;;;;;29.96;32.82;101773.06;10441789;28;20045;-83
2023/06/15 14:51:36;;;;;;;0.00;0.00;;;;;;;29.54;33.67;101782.69;10438202;28;20049;-84
2023/06/15 14:56:41;;;;;;;0.20;0.17;;;;;;;29.12;31.58;101785.19;10447695;28;20484;-83
2023/06/15 15:01:43;;;;;;;0.10;0.10;;;;;;;29.16;33.72;101785.94;10448564;28;20348;-83
2023/06/15 15:06:45;;;;;;;0.00;0.00;;;;;;;29.56;31.52;101778.19;10433761;28;20447;-82
2023/06/15 15:11:47;;;;;;;0.30;0.30;;;;;;;29.33;31.50;101779.97;10448125;28;20068;-82
2023/06/15 15:16:48;;;;;;;1.92;0.20;;;;;;;29.56;34.39;101775.53;10467083;28;20033;-83
2023/06/15 15:21:50;;;;;;;0.00;0.00;;;;;;;29.19;31.71;101782.28;10432616;28;20045;-83
2023/06/15 15:26:52;;;;;;;0.00;0.00;;;;;;;29.32;34.25;101767.63;10446345;28;20049;-83
2023/06/15 15:31:53;;;;;;;0.10;0.10;;;;;;;29.43;35.75;101762.78;10445684;28;20041;-82
2023/06/15 15:36:55;;;;;;;0.00;0.00;;;;;;;29.32;33.79;101766.78;10448372;28;20488;-82
2023/06/15 15:41:57;;;;;;;0.28;0.08;;;;;;;29.31;31.78;101763.25;10453211;28;20060;-83
2023/06/15 15:46:58;;;;;;;0.70;0.35;;;;;;;29.81;36.41;101761.28;10443153;28;20064;-81
2023/06/15 15:52:00;;;;;;;0.30;0.17;;;;;;;29.16;33.46;101761.16;10463972;28;20053;-84
2023/06/15 15:57:02;;;;;;;0.00;0.00;;;;;;;29.20;33.39;101760.13;10435093;28;20471;-83
2023/06/15 16:02:07;;;;;;;0.43;0.20;;;;;;;28.92;33.07;101750.59;10433519;28;20048;-84
2023/06/15 16:07:09;;;;;;;1.08;0.28;;;;;;;29.34;32.41;101746.38;10447036;28;20037;-84
2023/06/15 16:12:11;;;;;;;0.00;0.00;;;;;;;29.15;31.17;101747.03;10446536;28;20037;-83
2023/06/15 16:17:13;;;;;;;0.10;0.10;;;;;;;29.01;33.39;101747.56;10438753;28;20041;-84
2023/06/15 16:22:15;;;;;;;0.00;0.00;;;;;;;29.89;33.30;101727.28;10454820;28;20048;-82
2023/06/15 16:27:16;;;;;;;0.30;0.00;;;;;;;30.12;33.54;101733.44;10461816;28;20056;-82
2023/06/15 16:32:18;;;;;;;0.30;0.10;;;;;;;29.62;34.61;101729.31;10440007;28;20408;-81
2023/06/15 16:37:23;;;;;;;0.20;0.08;;;;;;;29.38;32.54;101732.88;10445770;28;20777;-82
2023/06/15 16:42:30;;;;;;;0.17;0.10;;;;;;;29.63;35.48;101721.25;10454396;28;20048;-83
2023/06/15 16:47:32;;;;;;;1.08;0.25;;;;;;;29.97;34.95;101717.22;10442246;28;20411;-83
2023/06/15 16:52:34;;;;;;;0.03;0.03;;;;;;;29.53;33.65;101711.94;10443347;28;20079;-81
2023/06/15 16:57:36;;;;;;;0.00;0.00;;;;;;;29.47;36.49;101715.75;10432176;28;20049;-83
2023/06/15 17:02:38;;;;;;;0.52;0.32;;;;;;;28.94;33.35;101727.50;10461187;28;20408;-84
2023/06/15 17:07:40;;;;;;;0.20;0.15;;;;;;;29.01;34.56;101720.19;10453174;28;20052;-83
2023/06/15 17:12:41;;;;;;;0.00;0.00;;;;;;;29.18;33.80;101725.72;10460535;28;20055;-83
2023/06/15 17:17:43;;;;;;;0.00;0.00;;;;;;;29.05;33.02;101725.31;10459703;28;20052;-83
2023/06/15 17:22:45;;;;;;;0.20;0.10;;;;;;;28.93;32.56;101725.81;10458351;28;20041;-84
2023/06/15 17:27:46;;;;;;;0.17;0.17;;;;;;;28.97;32.98;101727.41;10439862;28;20121;-83
2023/06/15 17:32:48;;;;;;;0.10;0.10;;;;;;;29.57;37.57;101716.22;10436421;28;20099;-82
2023/06/15 17:37:50;;;;;;;0.30;0.20;;;;;;;29.13;32.47;101717.94;10445684;28;20521;-84
2023/06/15 17:42:53;;;;;;;0.00;0.00;;;;;;;29.20;32.13;101717.69;10430865;28;20061;-83
2023/06/15 17:47:55;;;;;;;0.70;0.10;;;;;;;29.48;34.21;101716.59;10443182;28;20049;-82
2023/06/15 17:52:56;;;;;;;0.00;0.00;;;;;;;29.19;33.26;101731.88;10432526;28;20049;-83
2023/06/15 17:57:58;;;;;;;0.13;0.13;;;;;;;28.75;32.91;101733.53;10431896;28;20056;-84
2023/06/15 18:03:00;;;;;;;0.10;0.10;;;;;;;28.39;33.01;101733.06;10443375;28;20056;-83
2023/06/15 18:08:02;;;;;;;0.00;0.00;;;;;;;28.40;35.81;101737.44;10445527;28;20048;-83
2023/06/15 18:13:04;;;;;;;0.00;0.00;;;;;;;28.16;35.65;101746.22;10452019;28;20048;-82
2023/06/15 18:18:06;;;;;;;0.10;0.00;;;;;;;27.99;36.43;101738.84;10449054;28;20041;-82
2023/06/15 18:23:09;;;;;;;0.25;0.20;;;;;;;28.08;37.86;101748.28;10452006;28;20503;-82
2023/06/15 18:28:11;;;;;;;0.10;0.10;;;;;;;27.68;40.09;101752.22;10442374;28;20046;-82
2023/06/15 18:33:15;;;;;;;0.00;0.00;;;;;;;27.59;40.17;101760.47;10446605;28;20099;-82
2023/06/15 18:38:17;;;;;;;0.03;0.03;;;;;;;27.22;39.66;101752.72;10448817;28;20053;-83
2023/06/15 18:43:18;;;;;;;0.95;0.28;;;;;;;27.31;39.56;101756.00;10445791;28;20635;-81
2023/06/15 18:48:20;;;;;;;0.20;0.20;;;;;;;27.36;40.08;101759.38;10435003;28;20417;-81
2023/06/15 18:53:22;;;;;;;0.00;0.00;;;;;;;27.19;40.73;101762.53;10452385;28;20472;-82
2023/06/15 18:58:25;;;;;;;1.10;0.10;;;;;;;26.86;42.46;101765.28;10439563;28;20458;-82
2023/06/15 19:03:27;;;;;;;0.03;0.03;;;;;;;26.73;43.62;101765.59;10451963;28;20397;-82
2023/06/15 19:08:29;;;;;;;0.73;0.63;;;;;;;26.56;45.64;101767.84;10449951;28;20118;-82
2023/06/15 19:13:31;;;;;;;0.47;0.43;;;;;;;26.22;47.73;101769.63;10432310;28;20056;-81
2023/06/15 19:18:33;;;;;;;0.00;0.00;;;;;;;26.04;50.31;101775.34;10452951;28;20084;-81
2023/06/15 19:23:34;;;;;;;0.20;0.10;;;;;;;25.67;47.07;101787.69;10439953;28;20052;-81
2023/06/15 19:28:36;;;;;;;0.20;0.20;;;;;;;25.21;47.54;101794.78;10431082;28;20037;-80
2023/06/15 19:33:38;;;;;;;0.05;0.05;;;;;;;25.28;48.13;101804.31;10447518;28;20041;-81
2023/06/15 19:38:39;;;;;;;2.75;1.05;;;;;;;25.12;50.03;101808.19;10445919;28;20033;-81
2023/06/15 19:43:54;;;;;;;0.00;0.00;;;;;;;25.00;50.48;101812.81;10450629;28;20147;-82
2023/06/15 19:48:55;;;;;;;0.28;0.20;;;;;;;24.73;52.12;101802.81;10450541;28;20053;-81
2023/06/15 19:53:57;;;;;;;0.60;0.30;;;;;;;24.53;53.21;101811.94;10449622;28;20048;-81
2023/06/15 19:59:01;;;;;;;0.10;0.10;;;;;;;24.51;53.93;101816.34;10443770;28;20043;-81
2023/06/15 20:04:03;;;;;;;0.22;0.20;;;;;;;24.20;54.89;101819.50;10448530;28;20064;-80
2023/06/15 20:09:05;;;;;;;0.00;0.00;;;;;;;23.98;56.28;101825.13;10446268;28;20487;-80
2023/06/15 20:14:06;;;;;;;0.10;0.10;;;;;;;23.92;56.72;101838.34;10434535;28;20127;-81
2023/06/15 20:19:08;;;;;;;0.10;0.05;;;;;;;23.91;56.87;101840.09;10448551;28;20056;-80
2023/06/15 20:24:10;;;;;;;0.43;0.13;;;;;;;23.64;58.05;101846.66;10446534;28;20041;-80
2023/06/15 20:29:12;;;;;;;0.35;0.00;;;;;;;23.38;58.26;101850.50;10447307;28;20092;-80
2023/06/15 20:34:14;;;;;;;0.10;0.10;;;;;;;23.31;58.25;101858.50;10440000;28;20048;-80
2023/06/15 20:39:16;;;;;;;1.30;0.88;;;;;;;23.05;57.10;101855.22;10450043;28;20128;-80
2023/06/15 20:44:18;;;;;;;0.00;0.00;;;;;;;23.23;55.53;101861.19;10434681;28;20555;-81
2023/06/15 20:49:19;;;;;;;0.10;0.10;;;;;;;23.36;54.41;101860.16;10447166;28;20041;-80
2023/06/15 20:54:21;;;;;;;0.38;0.10;;;;;;;22.87;54.29;101863.31;10430404;28;20055;-81
2023/06/15 20:59:23;;;;;;;0.00;0.00;;;;;;;22.78;53.49;101875.66;10458790;28;20055;-80
2023/06/15 21:04:25;;;;;;;0.10;0.10;;;;;;;22.86;53.40;101872.94;10446198;28;20048;-81
2023/06/15 21:09:26;;;;;;;0.00;0.00;;;;;;;22.78;54.13;101878.28;10429869;28;20084;-80
2023/06/15 21:14:28;;;;;;;0.13;0.13;;;;;;;22.52;54.01;101878.50;10416574;28;20140;-80
2023/06/15 21:19:30;;;;;;;0.00;0.00;;;;;;;22.56;55.67;101874.09;10446135;28;20047;-80
2023/06/15 21:24:31;;;;;;;0.00;0.00;;;;;;;22.18;56.02;101879.63;10444175;28;20045;-81
2023/06/15 21:29:33;;;;;;;0.00;0.00;;;;;;;22.73;54.32;101882.72;10417563;28;20112;-80
2023/06/15 21:34:36;;;;;;;0.00;0.00;;;;;;;22.69;54.55;101875.72;10441927;28;20484;-80
2023/06/15 21:39:38;;;;;;;0.32;0.32;;;;;;;22.47;55.19;101875.91;10437805;28;20534;-80
2023/06/15 21:44:42;;;;;;;0.00;0.00;;;;;;;22.42;58.92;101876.84;10440994;28;20632;-80
2023/06/15 21:49:44;;;;;;;0.00;0.00;;;;;;;21.89;67.79;101876.31;10441991;28;20098;-80
2023/06/15 21:54:46;;;;;;;0.00;0.00;;;;;;;22.01;66.44;101870.97;10442339;28;20116;-80
2023/06/15 21:59:47;;;;;;;0.00;0.00;;;;;;;21.75;65.30;101879.88;10453077;28;20132;-80
2023/06/15 22:04:49;;;;;;;0.08;0.00;;;;;;;21.64;72.42;101877.31;10436136;28;20132;-80
2023/06/15 22:09:51;;;;;;;0.17;0.15;;;;;;;20.91;79.01;101880.13;10469161;28;20603;-81
2023/06/15 22:14:52;;;;;;;0.00;0.00;;;;;;;20.57;88.85;101882.75;10445023;28;20049;-80
2023/06/15 22:19:57;;;;;;;0.00;0.00;;;;;;;20.27;89.34;101881.88;10447071;28;20131;-80
2023/06/15 22:24:58;;;;;;;0.00;0.00;;;;;;;19.88;95.54;101882.69;10438394;28;20049;-80
2023/06/15 22:30:01;;;;;;;0.50;0.32;;;;;;;19.92;93.58;101885.28;10454908;28;20088;-80
2023/06/15 22:35:03;;;;;;;1.58;1.25;;;;;;;20.11;89.53;101893.19;10469103;28;20144;-80
2023/06/15 22:40:05;;;;;;;0.20;0.10;;;;;;;19.83;88.55;101895.69;10458006;28;20045;-80
2023/06/15 22:45:08;;;;;;;0.20;0.10;;;;;;;19.80;88.12;101895.69;10453283;28;20045;-80
2023/06/15 22:50:10;;;;;;;0.05;0.05;;;;;;;19.77;91.30;101900.91;10436071;28;20057;-80
2023/06/15 22:55:12;;;;;;;0.20;0.10;;;;;;;18.53;100.00;101905.31;10435160;28;20074;-80
2023/06/15 23:00:14;;;;;;;0.00;0.00;;;;;;;18.49;100.00;101908.78;10434107;28;20415;-80
2023/06/15 23:05:17;;;;;;;0.10;0.10;;;;;;;19.22;100.00;101902.38;10467812;28;20049;-80
2023/06/15 23:10:20;;;;;;;0.10;0.10;;;;;;;18.90;100.00;101903.00;10439184;28;20053;-80